sensor_id;sensor_type;location;lat;lon;timestamp;temperature;humidity
64961;SHT31;51487;52.266;10.542;2023-04-25T00:01:15;8.66;78.93
64961;SHT31;51487;52.266;10.542;2023-04-25T00:03:41;8.67;79.25
64961;SHT31;51487;52.266;10.542;2023-04-25T00:06:07;8.65;79.22
64961;SHT31;51487;52.266;10.542;2023-04-25T00:08:33;8.69;79.13
64961;SHT31;51487;52.266;10.542;2023-04-25T00:10:59;8.56;79.50
64961;SHT31;51487;52.266;10.542;2023-04-25T00:13:25;8.56;79.71
64961;SHT31;51487;52.266;10.542;2023-04-25T00:15:52;8.48;79.60
64961;SHT31;51487;52.266;10.542;2023-04-25T00:18:21;8.48;79.88
64961;SHT31;51487;52.266;10.542;2023-04-25T00:20:47;8.52;79.80
64961;SHT31;51487;52.266;10.542;2023-04-25T00:23:14;8.53;79.85
64961;SHT31;51487;52.266;10.542;2023-04-25T00:25:48;8.39;80.13
64961;SHT31;51487;52.266;10.542;2023-04-25T00:28:14;8.41;80.28
64961;SHT31;51487;52.266;10.542;2023-04-25T00:30:41;8.44;80.37
64961;SHT31;51487;52.266;10.542;2023-04-25T00:33:07;8.50;80.20
64961;SHT31;51487;52.266;10.542;2023-04-25T00:35:34;8.45;80.47
64961;SHT31;51487;52.266;10.542;2023-04-25T00:38:00;8.50;80.36
64961;SHT31;51487;52.266;10.542;2023-04-25T00:40:26;8.29;80.86
64961;SHT31;51487;52.266;10.542;2023-04-25T00:42:52;8.38;80.70
64961;SHT31;51487;52.266;10.542;2023-04-25T00:45:19;8.34;80.81
64961;SHT31;51487;52.266;10.542;2023-04-25T00:47:45;8.31;80.91
64961;SHT31;51487;52.266;10.542;2023-04-25T00:50:11;8.41;80.84
64961;SHT31;51487;52.266;10.542;2023-04-25T00:52:40;8.41;80.67
64961;SHT31;51487;52.266;10.542;2023-04-25T00:55:06;8.42;80.53
64961;SHT31;51487;52.266;10.542;2023-04-25T00:57:32;8.35;80.68
64961;SHT31;51487;52.266;10.542;2023-04-25T00:59:59;8.31;81.09
64961;SHT31;51487;52.266;10.542;2023-04-25T01:02:26;8.32;80.78
64961;SHT31;51487;52.266;10.542;2023-04-25T01:04:53;8.38;81.01
64961;SHT31;51487;52.266;10.542;2023-04-25T01:07:19;8.42;80.69
64961;SHT31;51487;52.266;10.542;2023-04-25T01:09:46;8.41;80.90
64961;SHT31;51487;52.266;10.542;2023-04-25T01:12:12;8.35;80.61
64961;SHT31;51487;52.266;10.542;2023-04-25T01:14:38;8.26;80.77
64961;SHT31;51487;52.266;10.542;2023-04-25T01:17:04;8.24;80.88
64961;SHT31;51487;52.266;10.542;2023-04-25T01:19:30;8.31;80.79
64961;SHT31;51487;52.266;10.542;2023-04-25T01:21:56;8.39;80.54
64961;SHT31;51487;52.266;10.542;2023-04-25T01:24:22;8.49;80.37
64961;SHT31;51487;52.266;10.542;2023-04-25T01:26:49;8.41;80.24
64961;SHT31;51487;52.266;10.542;2023-04-25T01:29:19;8.41;80.34
64961;SHT31;51487;52.266;10.542;2023-04-25T01:31:46;8.41;80.47
64961;SHT31;51487;52.266;10.542;2023-04-25T01:34:14;8.24;80.68
64961;SHT31;51487;52.266;10.542;2023-04-25T01:36:40;8.15;81.00
64961;SHT31;51487;52.266;10.542;2023-04-25T01:39:06;8.20;81.15
64961;SHT31;51487;52.266;10.542;2023-04-25T01:41:33;8.28;80.88
64961;SHT31;51487;52.266;10.542;2023-04-25T01:44:00;8.24;81.37
64961;SHT31;51487;52.266;10.542;2023-04-25T01:46:27;8.25;81.14
64961;SHT31;51487;52.266;10.542;2023-04-25T01:48:53;8.25;80.98
64961;SHT31;51487;52.266;10.542;2023-04-25T01:51:19;8.22;81.40
64961;SHT31;51487;52.266;10.542;2023-04-25T01:53:45;8.12;81.28
64961;SHT31;51487;52.266;10.542;2023-04-25T01:56:10;8.24;81.31
64961;SHT31;51487;52.266;10.542;2023-04-25T01:58:36;8.11;81.68
64961;SHT31;51487;52.266;10.542;2023-04-25T02:01:01;8.15;81.78
64961;SHT31;51487;52.266;10.542;2023-04-25T02:03:27;8.09;82.06
64961;SHT31;51487;52.266;10.542;2023-04-25T02:05:52;8.17;82.03
64961;SHT31;51487;52.266;10.542;2023-04-25T02:08:18;8.14;81.87
64961;SHT31;51487;52.266;10.542;2023-04-25T02:10:44;8.08;82.16
64961;SHT31;51487;52.266;10.542;2023-04-25T02:13:09;8.12;82.01
64961;SHT31;51487;52.266;10.542;2023-04-25T02:15:35;8.14;82.16
64961;SHT31;51487;52.266;10.542;2023-04-25T02:18:01;8.02;82.50
64961;SHT31;51487;52.266;10.542;2023-04-25T02:20:29;7.97;82.71
64961;SHT31;51487;52.266;10.542;2023-04-25T02:22:56;8.11;82.53
64961;SHT31;51487;52.266;10.542;2023-04-25T02:25:22;8.17;82.29
64961;SHT31;51487;52.266;10.542;2023-04-25T02:27:48;8.08;82.53
64961;SHT31;51487;52.266;10.542;2023-04-25T02:30:14;8.15;82.39
64961;SHT31;51487;52.266;10.542;2023-04-25T02:32:40;8.20;82.19
64961;SHT31;51487;52.266;10.542;2023-04-25T02:35:07;8.08;82.55
64961;SHT31;51487;52.266;10.542;2023-04-25T02:37:38;7.94;83.29
64961;SHT31;51487;52.266;10.542;2023-04-25T02:40:04;7.90;83.48
64961;SHT31;51487;52.266;10.542;2023-04-25T02:42:30;8.04;83.31
64961;SHT31;51487;52.266;10.542;2023-04-25T02:44:56;8.02;83.36
64961;SHT31;51487;52.266;10.542;2023-04-25T02:47:22;8.01;83.43
64961;SHT31;51487;52.266;10.542;2023-04-25T02:49:47;7.98;83.50
64961;SHT31;51487;52.266;10.542;2023-04-25T02:52:13;7.98;83.75
64961;SHT31;51487;52.266;10.542;2023-04-25T02:54:40;7.95;84.27
64961;SHT31;51487;52.266;10.542;2023-04-25T02:57:06;8.07;83.86
64961;SHT31;51487;52.266;10.542;2023-04-25T02:59:33;7.98;83.97
64961;SHT31;51487;52.266;10.542;2023-04-25T03:01:59;7.90;84.40
64961;SHT31;51487;52.266;10.542;2023-04-25T03:04:24;7.93;84.60
64961;SHT31;51487;52.266;10.542;2023-04-25T03:06:51;7.90;84.75
64961;SHT31;51487;52.266;10.542;2023-04-25T03:09:17;8.02;84.41
64961;SHT31;51487;52.266;10.542;2023-04-25T03:11:44;7.87;84.91
64961;SHT31;51487;52.266;10.542;2023-04-25T03:14:10;7.90;85.06
64961;SHT31;51487;52.266;10.542;2023-04-25T03:16:36;7.90;85.04
64961;SHT31;51487;52.266;10.542;2023-04-25T03:19:03;7.94;85.49
64961;SHT31;51487;52.266;10.542;2023-04-25T03:21:30;7.83;85.71
64961;SHT31;51487;52.266;10.542;2023-04-25T03:23:57;7.86;85.86
64961;SHT31;51487;52.266;10.542;2023-04-25T03:26:23;7.94;85.81
64961;SHT31;51487;52.266;10.542;2023-04-25T03:28:48;7.95;85.73
64961;SHT31;51487;52.266;10.542;2023-04-25T03:31:14;7.76;86.61
64961;SHT31;51487;52.266;10.542;2023-04-25T03:33:40;7.71;87.36
64961;SHT31;51487;52.266;10.542;2023-04-25T03:36:06;7.73;87.62
64961;SHT31;51487;52.266;10.542;2023-04-25T03:38:31;7.70;87.88
64961;SHT31;51487;52.266;10.542;2023-04-25T03:40:57;7.81;87.77
64961;SHT31;51487;52.266;10.542;2023-04-25T03:43:23;7.76;88.53
64961;SHT31;51487;52.266;10.542;2023-04-25T03:45:48;7.65;89.57
64961;SHT31;51487;52.266;10.542;2023-04-25T03:48:14;7.62;90.16
64961;SHT31;51487;52.266;10.542;2023-04-25T03:50:39;7.43;90.13
64961;SHT31;51487;52.266;10.542;2023-04-25T03:53:05;7.15;92.04
64961;SHT31;51487;52.266;10.542;2023-04-25T03:55:30;6.98;93.11
64961;SHT31;51487;52.266;10.542;2023-04-25T03:57:58;6.92;92.66
64961;SHT31;51487;52.266;10.542;2023-04-25T04:00:24;7.12;91.37
64961;SHT31;51487;52.266;10.542;2023-04-25T04:02:50;7.01;91.23
64961;SHT31;51487;52.266;10.542;2023-04-25T04:05:16;6.80;90.86
64961;SHT31;51487;52.266;10.542;2023-04-25T04:07:41;6.76;90.66
64961;SHT31;51487;52.266;10.542;2023-04-25T04:10:11;6.91;90.06
64961;SHT31;51487;52.266;10.542;2023-04-25T04:12:38;6.95;90.06
64961;SHT31;51487;52.266;10.542;2023-04-25T04:15:07;6.78;90.51
64961;SHT31;51487;52.266;10.542;2023-04-25T04:17:33;6.98;89.16
64961;SHT31;51487;52.266;10.542;2023-04-25T04:19:59;7.14;88.46
64961;SHT31;51487;52.266;10.542;2023-04-25T04:22:25;7.05;88.10
64961;SHT31;51487;52.266;10.542;2023-04-25T04:24:51;7.16;88.11
64961;SHT31;51487;52.266;10.542;2023-04-25T04:27:21;7.01;88.29
64961;SHT31;51487;52.266;10.542;2023-04-25T04:29:46;6.95;89.19
64961;SHT31;51487;52.266;10.542;2023-04-25T04:32:14;7.16;88.16
64961;SHT31;51487;52.266;10.542;2023-04-25T04:34:40;7.04;88.54
64961;SHT31;51487;52.266;10.542;2023-04-25T04:37:06;7.09;88.37
64961;SHT31;51487;52.266;10.542;2023-04-25T04:39:33;7.04;88.51
64961;SHT31;51487;52.266;10.542;2023-04-25T04:42:00;7.11;87.94
64961;SHT31;51487;52.266;10.542;2023-04-25T04:44:30;6.84;88.07
64961;SHT31;51487;52.266;10.542;2023-04-25T04:46:59;7.07;87.66
64961;SHT31;51487;52.266;10.542;2023-04-25T04:49:25;7.12;87.40
64961;SHT31;51487;52.266;10.542;2023-04-25T04:51:51;7.16;87.39
64961;SHT31;51487;52.266;10.542;2023-04-25T04:54:17;7.36;86.74
64961;SHT31;51487;52.266;10.542;2023-04-25T04:56:43;7.28;86.97
64961;SHT31;51487;52.266;10.542;2023-04-25T04:59:08;7.26;87.20
64961;SHT31;51487;52.266;10.542;2023-04-25T05:01:34;7.39;86.72
64961;SHT31;51487;52.266;10.542;2023-04-25T05:04:03;7.49;86.58
64961;SHT31;51487;52.266;10.542;2023-04-25T05:06:29;7.57;85.97
64961;SHT31;51487;52.266;10.542;2023-04-25T05:08:56;7.73;85.68
64961;SHT31;51487;52.266;10.542;2023-04-25T05:11:24;7.32;85.45
64961;SHT31;51487;52.266;10.542;2023-04-25T05:13:52;7.30;86.23
64961;SHT31;51487;52.266;10.542;2023-04-25T05:16:18;7.42;85.55
64961;SHT31;51487;52.266;10.542;2023-04-25T05:18:43;7.63;85.37
64961;SHT31;51487;52.266;10.542;2023-04-25T05:21:09;7.55;83.62
64961;SHT31;51487;52.266;10.542;2023-04-25T05:23:34;7.30;83.55
64961;SHT31;51487;52.266;10.542;2023-04-25T05:26:00;7.59;83.24
64961;SHT31;51487;52.266;10.542;2023-04-25T05:28:26;7.53;83.29
64961;SHT31;51487;52.266;10.542;2023-04-25T05:30:51;7.60;83.27
64961;SHT31;51487;52.266;10.542;2023-04-25T05:33:17;7.39;83.64
64961;SHT31;51487;52.266;10.542;2023-04-25T05:35:43;7.62;82.82
64961;SHT31;51487;52.266;10.542;2023-04-25T05:38:08;7.83;82.69
64961;SHT31;51487;52.266;10.542;2023-04-25T05:40:34;7.84;81.28
64961;SHT31;51487;52.266;10.542;2023-04-25T05:43:00;7.91;81.80
64961;SHT31;51487;52.266;10.542;2023-04-25T05:45:25;7.71;81.93
64961;SHT31;51487;52.266;10.542;2023-04-25T05:47:51;7.77;82.18
64961;SHT31;51487;52.266;10.542;2023-04-25T05:50:16;7.97;81.15
64961;SHT31;51487;52.266;10.542;2023-04-25T05:52:42;8.04;80.56
64961;SHT31;51487;52.266;10.542;2023-04-25T05:55:08;8.12;80.26
64961;SHT31;51487;52.266;10.542;2023-04-25T05:57:34;7.94;79.67
64961;SHT31;51487;52.266;10.542;2023-04-25T06:00:00;8.05;78.51
64961;SHT31;51487;52.266;10.542;2023-04-25T06:02:25;8.08;78.39
64961;SHT31;51487;52.266;10.542;2023-04-25T06:04:52;8.24;77.95
64961;SHT31;51487;52.266;10.542;2023-04-25T06:07:18;8.29;77.58
64961;SHT31;51487;52.266;10.542;2023-04-25T06:09:45;8.09;76.86
64961;SHT31;51487;52.266;10.542;2023-04-25T06:12:10;8.07;77.22
64961;SHT31;51487;52.266;10.542;2023-04-25T06:14:36;7.94;77.31
64961;SHT31;51487;52.266;10.542;2023-04-25T06:17:03;7.77;77.29
64961;SHT31;51487;52.266;10.542;2023-04-25T06:19:35;7.86;76.37
64961;SHT31;51487;52.266;10.542;2023-04-25T06:22:01;7.53;77.86
64961;SHT31;51487;52.266;10.542;2023-04-25T06:24:27;7.39;77.36
64961;SHT31;51487;52.266;10.542;2023-04-25T06:26:53;7.45;77.21
64961;SHT31;51487;52.266;10.542;2023-04-25T06:29:19;7.49;76.67
64961;SHT31;51487;52.266;10.542;2023-04-25T06:31:44;7.57;76.03
64961;SHT31;51487;52.266;10.542;2023-04-25T06:34:10;7.74;75.14
64961;SHT31;51487;52.266;10.542;2023-04-25T06:36:36;7.80;73.60
64961;SHT31;51487;52.266;10.542;2023-04-25T06:39:01;7.83;73.40
64961;SHT31;51487;52.266;10.542;2023-04-25T06:41:27;8.07;73.41
64961;SHT31;51487;52.266;10.542;2023-04-25T06:43:52;7.98;71.52
64961;SHT31;51487;52.266;10.542;2023-04-25T06:46:18;7.90;71.82
64961;SHT31;51487;52.266;10.542;2023-04-25T06:48:44;7.76;72.48
64961;SHT31;51487;52.266;10.542;2023-04-25T06:51:09;7.88;71.82
64961;SHT31;51487;52.266;10.542;2023-04-25T06:53:35;7.98;72.62
64961;SHT31;51487;52.266;10.542;2023-04-25T06:56:01;8.29;72.49
64961;SHT31;51487;52.266;10.542;2023-04-25T06:58:27;8.42;71.42
64961;SHT31;51487;52.266;10.542;2023-04-25T07:00:52;8.57;70.90
64961;SHT31;51487;52.266;10.542;2023-04-25T07:03:18;8.49;71.50
64961;SHT31;51487;52.266;10.542;2023-04-25T07:05:43;8.81;70.14
64961;SHT31;51487;52.266;10.542;2023-04-25T07:08:11;8.60;67.79
64961;SHT31;51487;52.266;10.542;2023-04-25T07:10:36;8.62;65.64
64961;SHT31;51487;52.266;10.542;2023-04-25T07:13:02;8.22;64.74
64961;SHT31;51487;52.266;10.542;2023-04-25T07:15:27;8.42;64.50
64961;SHT31;51487;52.266;10.542;2023-04-25T07:17:53;8.32;61.95
64961;SHT31;51487;52.266;10.542;2023-04-25T07:20:18;8.22;63.17
64961;SHT31;51487;52.266;10.542;2023-04-25T07:22:44;8.42;62.75
64961;SHT31;51487;52.266;10.542;2023-04-25T07:25:09;8.39;60.63
64961;SHT31;51487;52.266;10.542;2023-04-25T07:27:35;8.31;61.78
64961;SHT31;51487;52.266;10.542;2023-04-25T07:30:00;8.57;62.24
64961;SHT31;51487;52.266;10.542;2023-04-25T07:32:26;8.49;60.81
64961;SHT31;51487;52.266;10.542;2023-04-25T07:34:52;8.53;60.84
64961;SHT31;51487;52.266;10.542;2023-04-25T07:37:18;8.52;60.20
64961;SHT31;51487;52.266;10.542;2023-04-25T07:39:44;8.66;61.35
64961;SHT31;51487;52.266;10.542;2023-04-25T07:42:12;8.69;56.76
64961;SHT31;51487;52.266;10.542;2023-04-25T07:44:37;8.60;54.87
64961;SHT31;51487;52.266;10.542;2023-04-25T07:47:08;8.55;54.73
64961;SHT31;51487;52.266;10.542;2023-04-25T07:49:35;8.28;54.77
64961;SHT31;51487;52.266;10.542;2023-04-25T07:52:03;8.36;56.37
64961;SHT31;51487;52.266;10.542;2023-04-25T07:54:29;8.80;56.99
64961;SHT31;51487;52.266;10.542;2023-04-25T07:56:55;8.75;58.55
64961;SHT31;51487;52.266;10.542;2023-04-25T07:59:21;8.94;58.73
64961;SHT31;51487;52.266;10.542;2023-04-25T08:01:47;9.07;56.75
64961;SHT31;51487;52.266;10.542;2023-04-25T08:04:13;8.88;57.36
64961;SHT31;51487;52.266;10.542;2023-04-25T08:06:39;9.03;56.75
64961;SHT31;51487;52.266;10.542;2023-04-25T08:09:06;9.04;56.97
64961;SHT31;51487;52.266;10.542;2023-04-25T08:11:31;8.81;58.15
64961;SHT31;51487;52.266;10.542;2023-04-25T08:13:57;9.25;56.95
64961;SHT31;51487;52.266;10.542;2023-04-25T08:16:22;8.73;57.86
64961;SHT31;51487;52.266;10.542;2023-04-25T08:18:50;9.06;57.70
64961;SHT31;51487;52.266;10.542;2023-04-25T08:21:15;9.18;58.21
64961;SHT31;51487;52.266;10.542;2023-04-25T08:23:41;9.58;58.36
64961;SHT31;51487;52.266;10.542;2023-04-25T08:26:06;9.92;57.91
64961;SHT31;51487;52.266;10.542;2023-04-25T08:28:32;10.04;58.01
64961;SHT31;51487;52.266;10.542;2023-04-25T08:30:57;10.02;58.20
64961;SHT31;51487;52.266;10.542;2023-04-25T08:33:23;10.27;58.44
64961;SHT31;51487;52.266;10.542;2023-04-25T08:35:49;9.96;60.29
64961;SHT31;51487;52.266;10.542;2023-04-25T08:38:14;9.69;60.46
64961;SHT31;51487;52.266;10.542;2023-04-25T08:43:13;9.23;63.32
64961;SHT31;51487;52.266;10.542;2023-04-25T08:45:41;9.07;64.43
64961;SHT31;51487;52.266;10.542;2023-04-25T08:48:14;8.94;64.97
64961;SHT31;51487;52.266;10.542;2023-04-25T08:50:53;9.07;65.29
64961;SHT31;51487;52.266;10.542;2023-04-25T08:53:30;9.20;65.40
64961;SHT31;51487;52.266;10.542;2023-04-25T08:55:58;9.30;64.49
64961;SHT31;51487;52.266;10.542;2023-04-25T08:58:24;9.41;63.83
64961;SHT31;51487;52.266;10.542;2023-04-25T09:00:52;9.46;64.14
64961;SHT31;51487;52.266;10.542;2023-04-25T09:03:18;9.78;61.43
64961;SHT31;51487;52.266;10.542;2023-04-25T09:05:44;9.92;58.53
64961;SHT31;51487;52.266;10.542;2023-04-25T09:08:10;9.39;57.40
64961;SHT31;51487;52.266;10.542;2023-04-25T09:10:37;9.24;58.89
64961;SHT31;51487;52.266;10.542;2023-04-25T09:15:32;8.96;60.35
64961;SHT31;51487;52.266;10.542;2023-04-25T09:17:59;8.96;60.84
64961;SHT31;51487;52.266;10.542;2023-04-25T09:20:25;9.04;60.91
64961;SHT31;51487;52.266;10.542;2023-04-25T09:23:05;9.34;59.16
64961;SHT31;51487;52.266;10.542;2023-04-25T09:25:36;9.44;56.92
64961;SHT31;51487;52.266;10.542;2023-04-25T09:28:06;9.17;58.06
64961;SHT31;51487;52.266;10.542;2023-04-25T09:30:35;9.35;58.95
64961;SHT31;51487;52.266;10.542;2023-04-25T09:33:10;9.51;57.64
64961;SHT31;51487;52.266;10.542;2023-04-25T09:35:43;9.52;57.26
64961;SHT31;51487;52.266;10.542;2023-04-25T09:38:13;9.71;56.69
64961;SHT31;51487;52.266;10.542;2023-04-25T09:40:44;9.81;56.55
64961;SHT31;51487;52.266;10.542;2023-04-25T09:43:23;9.42;56.55
64961;SHT31;51487;52.266;10.542;2023-04-25T09:45:50;9.38;57.02
64961;SHT31;51487;52.266;10.542;2023-04-25T09:48:21;9.63;56.12
64961;SHT31;51487;52.266;10.542;2023-04-25T09:51:15;9.21;57.32
64961;SHT31;51487;52.266;10.542;2023-04-25T09:53:42;9.11;57.74
64961;SHT31;51487;52.266;10.542;2023-04-25T09:56:11;9.21;57.78
64961;SHT31;51487;52.266;10.542;2023-04-25T09:58:39;9.38;58.06
64961;SHT31;51487;52.266;10.542;2023-04-25T10:01:08;9.48;59.29
64961;SHT31;51487;52.266;10.542;2023-04-25T10:03:38;9.54;58.22
64961;SHT31;51487;52.266;10.542;2023-04-25T10:06:19;9.73;58.42
64961;SHT31;51487;52.266;10.542;2023-04-25T10:08:51;9.90;57.97
64961;SHT31;51487;52.266;10.542;2023-04-25T10:11:19;10.03;57.42
64961;SHT31;51487;52.266;10.542;2023-04-25T10:13:47;10.17;57.76
64961;SHT31;51487;52.266;10.542;2023-04-25T10:16:13;10.50;56.59
64961;SHT31;51487;52.266;10.542;2023-04-25T10:18:38;10.37;56.00
64961;SHT31;51487;52.266;10.542;2023-04-25T10:21:06;10.27;55.85
64961;SHT31;51487;52.266;10.542;2023-04-25T10:23:32;10.03;56.67
64961;SHT31;51487;52.266;10.542;2023-04-25T10:26:00;10.18;56.76
64961;SHT31;51487;52.266;10.542;2023-04-25T10:28:26;10.14;56.66
64961;SHT31;51487;52.266;10.542;2023-04-25T10:31:06;10.03;56.80
64961;SHT31;51487;52.266;10.542;2023-04-25T10:33:40;10.33;56.49
64961;SHT31;51487;52.266;10.542;2023-04-25T10:36:18;9.55;57.85
64961;SHT31;51487;52.266;10.542;2023-04-25T10:38:45;9.71;57.88
64961;SHT31;51487;52.266;10.542;2023-04-25T10:41:14;9.78;58.20
64961;SHT31;51487;52.266;10.542;2023-04-25T10:43:44;9.87;57.33
64961;SHT31;51487;52.266;10.542;2023-04-25T10:46:24;10.36;55.49
64961;SHT31;51487;52.266;10.542;2023-04-25T10:48:56;10.27;53.40
64961;SHT31;51487;52.266;10.542;2023-04-25T10:51:31;10.34;53.64
64961;SHT31;51487;52.266;10.542;2023-04-25T10:54:07;10.36;51.77
64961;SHT31;51487;52.266;10.542;2023-04-25T10:59:11;10.24;51.17
64961;SHT31;51487;52.266;10.542;2023-04-25T11:01:40;10.36;51.43
64961;SHT31;51487;52.266;10.542;2023-04-25T11:04:06;10.58;50.13
64961;SHT31;51487;52.266;10.542;2023-04-25T11:07:07;10.51;50.27
64961;SHT31;51487;52.266;10.542;2023-04-25T11:09:39;10.10;51.20
64961;SHT31;51487;52.266;10.542;2023-04-25T11:12:08;10.18;51.62
64961;SHT31;51487;52.266;10.542;2023-04-25T11:14:35;10.17;52.40
64961;SHT31;51487;52.266;10.542;2023-04-25T11:17:00;10.40;51.83
64961;SHT31;51487;52.266;10.542;2023-04-25T11:19:28;10.74;51.56
64961;SHT31;51487;52.266;10.542;2023-04-25T11:22:02;10.76;52.17
64961;SHT31;51487;52.266;10.542;2023-04-25T11:24:30;10.24;53.58
64961;SHT31;51487;52.266;10.542;2023-04-25T11:26:58;9.82;53.93
64961;SHT31;51487;52.266;10.542;2023-04-25T11:29:27;9.62;54.37
64961;SHT31;51487;52.266;10.542;2023-04-25T11:31:54;9.35;54.21
64961;SHT31;51487;52.266;10.542;2023-04-25T11:34:24;9.15;55.06
64961;SHT31;51487;52.266;10.542;2023-04-25T11:36:51;8.88;55.44
64961;SHT31;51487;52.266;10.542;2023-04-25T11:39:19;9.08;55.85
64961;SHT31;51487;52.266;10.542;2023-04-25T11:41:44;9.17;55.85
64961;SHT31;51487;52.266;10.542;2023-04-25T11:44:10;9.14;56.69
64961;SHT31;51487;52.266;10.542;2023-04-25T11:46:36;9.11;58.71
64961;SHT31;51487;52.266;10.542;2023-04-25T11:49:02;9.15;59.51
64961;SHT31;51487;52.266;10.542;2023-04-25T11:51:30;8.90;60.37
64961;SHT31;51487;52.266;10.542;2023-04-25T11:53:56;9.52;59.84
64961;SHT31;51487;52.266;10.542;2023-04-25T11:56:22;9.49;59.85
64961;SHT31;51487;52.266;10.542;2023-04-25T11:59:13;9.61;59.37
64961;SHT31;51487;52.266;10.542;2023-04-25T12:01:46;9.65;59.73
64961;SHT31;51487;52.266;10.542;2023-04-25T12:04:18;9.72;59.51
64961;SHT31;51487;52.266;10.542;2023-04-25T12:06:46;9.97;58.97
64961;SHT31;51487;52.266;10.542;2023-04-25T12:09:14;10.13;57.98
64961;SHT31;51487;52.266;10.542;2023-04-25T12:11:54;10.07;57.13
64961;SHT31;51487;52.266;10.542;2023-04-25T12:14:26;10.14;54.17
64961;SHT31;51487;52.266;10.542;2023-04-25T12:16:55;10.13;53.99
64961;SHT31;51487;52.266;10.542;2023-04-25T12:19:22;10.48;54.04
64961;SHT31;51487;52.266;10.542;2023-04-25T12:21:49;10.14;51.61
64961;SHT31;51487;52.266;10.542;2023-04-25T12:24:24;10.43;51.84
64961;SHT31;51487;52.266;10.542;2023-04-25T12:27:06;10.24;53.06
64961;SHT31;51487;52.266;10.542;2023-04-25T12:29:34;10.45;52.61
64961;SHT31;51487;52.266;10.542;2023-04-25T12:32:00;10.40;52.52
64961;SHT31;51487;52.266;10.542;2023-04-25T12:34:27;10.72;51.83
64961;SHT31;51487;52.266;10.542;2023-04-25T12:36:54;10.71;51.84
64961;SHT31;51487;52.266;10.542;2023-04-25T12:39:24;11.06;50.19
64961;SHT31;51487;52.266;10.542;2023-04-25T12:41:51;10.61;49.04
64961;SHT31;51487;52.266;10.542;2023-04-25T12:44:20;10.41;50.44
64961;SHT31;51487;52.266;10.542;2023-04-25T12:46:47;10.12;51.84
64961;SHT31;51487;52.266;10.542;2023-04-25T12:49:12;10.13;53.07
64961;SHT31;51487;52.266;10.542;2023-04-25T12:51:38;10.36;53.39
64961;SHT31;51487;52.266;10.542;2023-04-25T12:54:05;10.45;54.55
64961;SHT31;51487;52.266;10.542;2023-04-25T12:56:32;10.07;55.13
64961;SHT31;51487;52.266;10.542;2023-04-25T12:58:58;10.23;54.54
64961;SHT31;51487;52.266;10.542;2023-04-25T13:01:25;9.34;56.04
64961;SHT31;51487;52.266;10.542;2023-04-25T13:03:52;9.46;56.88
64961;SHT31;51487;52.266;10.542;2023-04-25T13:06:19;9.99;56.36
64961;SHT31;51487;52.266;10.542;2023-04-25T13:08:45;9.93;57.25
64961;SHT31;51487;52.266;10.542;2023-04-25T13:11:11;9.69;58.71
64961;SHT31;51487;52.266;10.542;2023-04-25T13:13:37;9.56;58.73
64961;SHT31;51487;52.266;10.542;2023-04-25T13:16:05;9.59;58.73
64961;SHT31;51487;52.266;10.542;2023-04-25T13:18:31;9.65;57.11
64961;SHT31;51487;52.266;10.542;2023-04-25T13:20:58;9.58;57.94
64961;SHT31;51487;52.266;10.542;2023-04-25T13:23:27;9.86;57.36
64961;SHT31;51487;52.266;10.542;2023-04-25T13:25:53;10.29;56.07
64961;SHT31;51487;52.266;10.542;2023-04-25T13:28:19;10.27;56.61
64961;SHT31;51487;52.266;10.542;2023-04-25T13:30:45;10.34;56.53
64961;SHT31;51487;52.266;10.542;2023-04-25T13:33:11;10.88;56.05
64961;SHT31;51487;52.266;10.542;2023-04-25T13:35:37;10.55;56.85
64961;SHT31;51487;52.266;10.542;2023-04-25T13:38:03;10.64;56.89
64961;SHT31;51487;52.266;10.542;2023-04-25T13:40:30;11.09;56.52
64961;SHT31;51487;52.266;10.542;2023-04-25T13:42:56;10.83;56.60
64961;SHT31;51487;52.266;10.542;2023-04-25T13:45:22;10.93;55.94
64961;SHT31;51487;52.266;10.542;2023-04-25T13:47:47;11.19;54.33
64961;SHT31;51487;52.266;10.542;2023-04-25T13:50:13;11.06;54.45
64961;SHT31;51487;52.266;10.542;2023-04-25T13:52:40;11.02;54.85
64961;SHT31;51487;52.266;10.542;2023-04-25T13:55:07;11.06;54.49
64961;SHT31;51487;52.266;10.542;2023-04-25T13:57:34;11.02;53.61
64961;SHT31;51487;52.266;10.542;2023-04-25T14:00:01;11.20;53.26
64961;SHT31;51487;52.266;10.542;2023-04-25T14:02:31;11.27;51.10
64961;SHT31;51487;52.266;10.542;2023-04-25T14:04:57;10.92;47.74
64961;SHT31;51487;52.266;10.542;2023-04-25T14:07:22;10.98;46.00
64961;SHT31;51487;52.266;10.542;2023-04-25T14:09:48;10.81;46.02
64961;SHT31;51487;52.266;10.542;2023-04-25T14:12:16;10.57;47.11
64961;SHT31;51487;52.266;10.542;2023-04-25T14:14:41;10.51;47.00
64961;SHT31;51487;52.266;10.542;2023-04-25T14:17:08;9.87;48.79
64961;SHT31;51487;52.266;10.542;2023-04-25T14:19:34;9.90;50.01
64961;SHT31;51487;52.266;10.542;2023-04-25T14:21:59;9.96;50.49
64961;SHT31;51487;52.266;10.542;2023-04-25T14:24:25;9.54;52.35
64961;SHT31;51487;52.266;10.542;2023-04-25T14:26:51;9.44;53.32
64961;SHT31;51487;52.266;10.542;2023-04-25T14:29:16;9.61;54.17
64961;SHT31;51487;52.266;10.542;2023-04-25T14:31:42;9.83;54.10
64961;SHT31;51487;52.266;10.542;2023-04-25T14:34:07;9.92;54.82
64961;SHT31;51487;52.266;10.542;2023-04-25T14:36:33;9.90;55.95
64961;SHT31;51487;52.266;10.542;2023-04-25T14:38:59;10.13;56.00
64961;SHT31;51487;52.266;10.542;2023-04-25T14:41:25;10.29;56.47
64961;SHT31;51487;52.266;10.542;2023-04-25T14:43:52;10.40;55.89
64961;SHT31;51487;52.266;10.542;2023-04-25T14:46:19;10.41;55.75
64961;SHT31;51487;52.266;10.542;2023-04-25T14:48:45;10.38;55.85
64961;SHT31;51487;52.266;10.542;2023-04-25T14:51:11;10.57;55.73
64961;SHT31;51487;52.266;10.542;2023-04-25T14:53:37;10.43;55.61
64961;SHT31;51487;52.266;10.542;2023-04-25T14:56:03;10.62;55.57
64961;SHT31;51487;52.266;10.542;2023-04-25T14:58:29;10.68;55.13
64961;SHT31;51487;52.266;10.542;2023-04-25T15:00:54;10.44;56.19
64961;SHT31;51487;52.266;10.542;2023-04-25T15:03:20;10.51;56.78
64961;SHT31;51487;52.266;10.542;2023-04-25T15:05:46;10.62;56.56
64961;SHT31;51487;52.266;10.542;2023-04-25T15:08:11;10.25;58.85
64961;SHT31;51487;52.266;10.542;2023-04-25T15:10:37;10.03;61.70
64961;SHT31;51487;52.266;10.542;2023-04-25T15:13:03;9.76;62.88
64961;SHT31;51487;52.266;10.542;2023-04-25T15:15:29;9.48;64.20
64961;SHT31;51487;52.266;10.542;2023-04-25T15:17:56;9.34;65.41
64961;SHT31;51487;52.266;10.542;2023-04-25T15:20:23;9.55;64.91
64961;SHT31;51487;52.266;10.542;2023-04-25T15:22:49;9.30;65.15
64961;SHT31;51487;52.266;10.542;2023-04-25T15:25:16;9.27;64.99
64961;SHT31;51487;52.266;10.542;2023-04-25T15:27:44;9.61;64.37
64961;SHT31;51487;52.266;10.542;2023-04-25T15:30:14;10.02;62.85
64961;SHT31;51487;52.266;10.542;2023-04-25T15:32:42;9.96;62.68
64961;SHT31;51487;52.266;10.542;2023-04-25T15:35:08;10.20;62.17